createdAt,value
2023-04-01T00:02:22.884Z,98832.09
2023-04-01T00:12:26.019Z,98824.50
2023-04-01T00:22:27.869Z,98821.16
2023-04-01T00:32:29.879Z,98816.75
2023-04-01T00:42:31.484Z,98821.91
2023-04-01T00:52:33.892Z,98810.97
2023-04-01T01:02:35.908Z,98817.00
2023-04-01T01:12:59.043Z,98811.63
2023-04-01T01:23:28.135Z,98807.81
2023-04-01T01:33:53.234Z,98797.19
2023-04-01T01:43:57.661Z,98794.03
2023-04-01T01:53:59.158Z,98798.00
2023-04-01T02:04:01.267Z,98790.66
2023-04-01T02:14:09.743Z,98795.94
2023-04-01T02:24:16.162Z,98809.53
2023-04-01T02:34:17.883Z,98799.25
2023-04-01T02:44:19.279Z,98823.25
2023-04-01T02:54:20.780Z,98835.47
2023-04-01T03:04:22.163Z,98837.34
2023-04-01T03:14:23.641Z,98837.34
2023-04-01T03:24:25.064Z,98842.53
2023-04-01T03:34:27.116Z,98851.78
2023-04-01T03:44:32.540Z,98846.69
2023-04-01T03:54:34.138Z,98850.97
2023-04-01T04:04:35.577Z,98857.81
2023-04-01T04:14:37.168Z,98858.75
2023-04-01T04:24:38.740Z,98872.38
2023-04-01T04:34:40.168Z,98878.47
2023-04-01T04:44:41.512Z,98878.44
2023-04-01T04:54:42.893Z,98887.13
2023-04-01T05:04:44.463Z,98879.41
2023-04-01T05:14:45.854Z,98892.25
2023-04-01T05:24:47.205Z,98899.25
2023-04-01T05:34:52.116Z,98907.97
2023-04-01T05:44:53.820Z,98911.38
2023-04-01T05:54:55.166Z,98919.97
2023-04-01T06:05:21.207Z,98926.00
2023-04-01T06:15:37.604Z,98929.47
2023-04-01T06:26:00.277Z,98927.00
2023-04-01T06:36:27.240Z,98933.75
2023-04-01T06:46:43.687Z,98952.63
2023-04-01T06:56:50.829Z,98954.41
2023-04-01T07:06:56.762Z,98957.94
2023-04-01T07:17:21.766Z,98961.22
2023-04-01T07:27:24.144Z,98977.63
2023-04-01T07:37:43.538Z,98992.09
2023-04-01T07:48:06.211Z,99002.41
2023-04-01T07:58:16.405Z,99002.28
2023-04-01T08:08:34.097Z,99019.50
2023-04-01T08:18:47.951Z,99036.69
2023-04-01T08:29:04.712Z,99059.88
2023-04-01T08:39:15.885Z,99071.81
2023-04-01T08:49:17.187Z,99079.41
2023-04-01T08:59:24.624Z,99085.38
2023-04-01T09:09:36.049Z,99097.94
2023-04-01T09:20:15.299Z,99108.16
2023-04-01T09:30:22.539Z,99113.94
2023-04-01T09:40:38.636Z,99128.47
2023-04-01T09:50:50.979Z,99136.97
2023-04-01T10:01:16.463Z,99146.31
2023-04-01T10:11:57.492Z,99153.91
2023-04-01T10:22:16.834Z,99161.47
2023-04-01T10:32:30.662Z,99171.69
2023-04-01T10:42:56.318Z,99174.28
2023-04-01T10:53:35.495Z,99191.31
2023-04-01T11:04:01.874Z,99197.19
2023-04-01T11:14:24.845Z,99218.78
2023-04-01T11:24:29.170Z,99221.31
2023-04-01T11:34:39.710Z,99219.53
2023-04-01T11:45:08.645Z,99245.50
2023-04-01T11:55:33.757Z,99262.69
2023-04-01T12:05:54.893Z,99274.53
2023-04-01T12:16:23.595Z,99289.75
2023-04-01T12:26:49.072Z,99310.22
2023-04-01T12:37:12.378Z,99320.44
2023-04-01T12:47:20.098Z,99322.06
2023-04-01T12:58:00.812Z,99344.53
2023-04-01T13:08:25.850Z,99348.91
2023-04-01T13:18:27.272Z,99364.38
2023-04-01T13:28:56.647Z,99386.88
2023-04-01T13:39:31.535Z,99387.00
2023-04-01T13:49:46.335Z,99397.56
2023-04-01T14:00:06.060Z,99410.50
2023-04-01T14:10:35.941Z,99419.13
2023-04-01T14:20:41.757Z,99423.22
2023-04-01T14:30:59.752Z,99437.81
2023-04-01T14:41:21.694Z,99454.97
2023-04-01T14:51:29.136Z,99454.06
2023-04-01T15:01:43.996Z,99469.56
2023-04-01T15:11:51.483Z,99479.03
2023-04-01T15:22:08.323Z,99498.81
2023-04-01T15:32:17.423Z,99503.97
2023-04-01T15:42:37.383Z,99524.69
2023-04-01T15:53:07.005Z,99533.25
2023-04-01T16:03:46.165Z,99541.09
2023-04-01T16:13:52.808Z,99543.88
2023-04-01T16:24:05.520Z,99562.03
2023-04-01T16:34:18.253Z,99575.97
2023-04-01T16:44:23.913Z,99586.53
2023-04-01T16:54:36.604Z,99609.00
2023-04-01T17:05:01.227Z,99618.44
2023-04-01T17:15:05.845Z,99632.31
2023-04-01T17:25:29.044Z,99641.91
2023-04-01T17:35:53.793Z,99654.94
2023-04-01T17:45:58.774Z,99678.22
2023-04-01T17:56:09.538Z,99703.28
2023-04-01T18:06:25.889Z,99734.88
2023-04-01T18:16:37.822Z,99746.72
2023-04-01T18:26:43.013Z,99754.44
2023-04-01T18:36:56.514Z,99769.94
2023-04-01T18:47:19.754Z,99785.47
2023-04-01T18:57:22.113Z,99813.31
2023-04-01T19:07:42.826Z,99827.50
2023-04-01T19:18:09.077Z,99849.34
2023-04-01T19:28:40.395Z,99884.66
2023-04-01T19:38:52.553Z,99891.00
2023-04-01T19:49:05.950Z,99911.88
2023-04-01T19:59:29.038Z,99932.53
2023-04-01T20:09:42.627Z,99955.94
2023-04-01T20:20:04.378Z,99977.47
2023-04-01T20:30:38.484Z,100004.94
2023-04-01T20:40:50.735Z,100017.94
2023-04-01T20:50:58.632Z,100057.59
2023-04-01T21:01:15.154Z,100063.78
2023-04-01T21:11:27.148Z,100076.63
2023-04-01T21:21:59.586Z,100102.66
2023-04-01T21:32:01.193Z,100136.16
2023-04-01T21:42:15.381Z,100162.06
2023-04-01T21:52:44.409Z,100181.00
2023-04-01T22:03:08.183Z,100200.72
2023-04-01T22:13:22.470Z,100229.91
2023-04-01T22:24:01.365Z,100257.34
2023-04-01T22:34:28.270Z,100272.03
2023-04-01T22:44:43.734Z,100295.19
2023-04-01T22:54:53.938Z,100312.31
2023-04-01T23:04:58.999Z,100333.78
2023-04-01T23:15:03.664Z,100363.75
2023-04-01T23:25:25.757Z,100392.03
2023-04-01T23:35:27.119Z,100393.81
2023-04-01T23:45:28.805Z,100417.66
2023-04-01T23:55:35.664Z,100443.81
